createdAt,value
2024-05-09T00:00:46.692Z,3.35
2024-05-09T00:03:24.332Z,10.82
2024-05-09T00:05:59.251Z,4.78
2024-05-09T00:08:34.183Z,4.30
2024-05-09T00:11:09.155Z,3.95
2024-05-09T00:13:44.091Z,3.17
2024-05-09T00:16:18.879Z,3.78
2024-05-09T00:18:56.337Z,3.55
2024-05-09T00:21:31.179Z,3.88
2024-05-09T00:24:06.142Z,4.18
2024-05-09T00:26:41.012Z,6.13
2024-05-09T00:29:15.865Z,3.25
2024-05-09T00:31:50.756Z,4.07
2024-05-09T00:34:28.489Z,4.40
2024-05-09T00:37:03.602Z,4.60
2024-05-09T00:39:38.373Z,4.03
2024-05-09T00:42:13.127Z,4.20
2024-05-09T00:44:47.838Z,5.25
2024-05-09T00:47:24.105Z,4.25
2024-05-09T00:50:02.460Z,2.88
2024-05-09T00:52:38.488Z,4.78
2024-05-09T00:55:13.348Z,5.63
2024-05-09T00:57:48.495Z,3.75
2024-05-09T01:00:31.471Z,3.60
2024-05-09T01:03:14.313Z,4.45
2024-05-09T01:05:52.282Z,3.75
2024-05-09T01:08:27.413Z,3.78
2024-05-09T01:11:02.341Z,4.03
2024-05-09T01:13:37.299Z,3.85
2024-05-09T01:16:12.043Z,3.50
2024-05-09T01:18:47.059Z,4.10
2024-05-09T01:21:24.512Z,2.55
2024-05-09T01:24:01.824Z,3.70
2024-05-09T01:26:36.690Z,3.42
2024-05-09T01:29:11.517Z,4.82
2024-05-09T01:31:46.876Z,4.60
2024-05-09T01:34:21.803Z,4.03
2024-05-09T01:36:56.618Z,7.75
2024-05-09T01:39:33.970Z,4.10
2024-05-09T01:42:08.866Z,3.53
2024-05-09T01:44:43.614Z,3.25
2024-05-09T01:47:18.486Z,3.72
2024-05-09T01:49:53.329Z,3.47
2024-05-09T01:52:28.130Z,4.35
2024-05-09T01:55:06.647Z,3.20
2024-05-09T01:57:41.678Z,4.18
2024-05-09T02:00:22.267Z,4.22
2024-05-09T02:03:04.626Z,4.38
2024-05-09T02:05:39.710Z,3.92
2024-05-09T02:08:17.178Z,4.22
2024-05-09T02:10:54.931Z,3.38
2024-05-09T02:13:29.822Z,4.85
2024-05-09T02:16:04.672Z,4.35
2024-05-09T02:18:39.601Z,4.32
2024-05-09T02:21:14.457Z,3.58
2024-05-09T02:23:49.242Z,3.38
2024-05-09T02:26:26.714Z,6.22
2024-05-09T02:29:02.282Z,4.50
2024-05-09T02:31:37.169Z,3.92
2024-05-09T02:34:09.392Z,3.85
2024-05-09T02:36:44.231Z,5.05
2024-05-09T02:39:16.436Z,3.42
2024-05-09T02:41:53.735Z,4.20
2024-05-09T02:44:25.954Z,5.20
2024-05-09T02:47:00.750Z,5.28
2024-05-09T02:49:33.061Z,5.47
2024-05-09T02:52:08.307Z,5.68
2024-05-09T02:54:40.455Z,4.60
2024-05-09T02:57:17.736Z,3.83
2024-05-09T02:59:49.914Z,4.93
2024-05-09T03:02:24.697Z,4.40
2024-05-09T03:04:56.985Z,4.75
2024-05-09T03:07:31.782Z,3.95
2024-05-09T03:10:05.762Z,5.25
2024-05-09T03:12:44.655Z,6.07
2024-05-09T03:15:18.413Z,3.95
2024-05-09T03:20:32.424Z,4.28
2024-05-09T03:23:10.704Z,3.42
2024-05-09T03:25:42.928Z,4.97
2024-05-09T03:28:20.332Z,6.38
2024-05-09T03:30:52.534Z,6.13
2024-05-09T03:33:27.415Z,3.55
2024-05-09T03:35:59.658Z,4.22
2024-05-09T03:38:39.446Z,7.18
2024-05-09T03:41:15.918Z,4.32
2024-05-09T03:43:50.753Z,5.20
2024-05-09T03:46:25.499Z,6.70
2024-05-09T03:48:57.815Z,6.78
2024-05-09T03:51:32.630Z,6.32
2024-05-09T03:54:04.877Z,5.95
2024-05-09T03:56:41.839Z,5.05
2024-05-09T03:59:16.761Z,6.65
2024-05-09T04:01:51.653Z,4.43
2024-05-09T04:04:23.983Z,3.70
2024-05-09T04:06:58.690Z,5.03
2024-05-09T04:09:30.870Z,4.28
2024-05-09T04:12:05.759Z,7.50
2024-05-09T04:14:42.951Z,6.65
2024-05-09T04:17:17.863Z,5.03
2024-05-09T04:19:50.066Z,4.95
2024-05-09T04:22:24.814Z,4.72
2024-05-09T04:24:57.010Z,5.03
2024-05-09T04:27:31.788Z,5.45
2024-05-09T04:30:12.232Z,5.80
2024-05-09T04:32:53.552Z,5.95
2024-05-09T04:35:25.873Z,6.60
2024-05-09T04:38:00.750Z,9.70
2024-05-09T04:40:36.021Z,3.55
2024-05-09T04:43:19.109Z,7.20
2024-05-09T04:45:54.051Z,7.70
2024-05-09T04:48:29.008Z,11.57
2024-05-09T04:51:02.139Z,10.65
2024-05-09T04:53:37.099Z,10.52
2024-05-09T04:56:09.483Z,8.48
2024-05-09T04:58:44.401Z,9.68
2024-05-09T05:01:19.248Z,7.35
2024-05-09T05:03:55.862Z,5.68
2024-05-09T05:06:30.293Z,11.15
2024-05-09T05:09:05.239Z,7.80
2024-05-09T05:11:37.573Z,7.22
2024-05-09T05:14:12.523Z,7.15
2024-05-09T05:16:47.333Z,13.32
2024-05-09T05:19:22.261Z,16.35
2024-05-09T05:21:54.537Z,10.05
2024-05-09T05:24:29.392Z,6.57
2024-05-09T05:27:02.317Z,7.60
2024-05-09T05:29:37.136Z,7.20
2024-05-09T05:32:12.141Z,4.72
2024-05-09T05:34:47.097Z,8.73
2024-05-09T05:37:19.306Z,5.95
2024-05-09T05:39:54.079Z,7.68
2024-05-09T05:42:26.944Z,9.38
2024-05-09T05:45:01.716Z,10.23
2024-05-09T05:47:38.757Z,14.82
2024-05-09T05:50:23.814Z,15.57
2024-05-09T05:53:00.739Z,13.57
2024-05-09T05:55:36.351Z,25.10
2024-05-09T05:58:12.394Z,30.00
2024-05-09T06:00:48.364Z,30.17
2024-05-09T06:03:24.164Z,31.75
2024-05-09T06:05:59.725Z,25.02
2024-05-09T06:08:32.669Z,17.58
2024-05-09T06:11:08.334Z,17.87
2024-05-09T06:13:43.257Z,19.23
2024-05-09T06:16:18.718Z,17.92
2024-05-09T06:18:54.403Z,23.20
2024-05-09T06:21:30.088Z,18.17
2024-05-09T06:24:06.599Z,21.40
2024-05-09T06:26:44.853Z,19.45
2024-05-09T06:29:17.769Z,24.42
2024-05-09T06:31:53.503Z,16.73
2024-05-09T06:34:30.004Z,18.33
2024-05-09T06:37:05.816Z,18.35
2024-05-09T06:39:38.775Z,26.08
2024-05-09T06:42:14.323Z,22.57
2024-05-09T06:44:47.577Z,13.45
2024-05-09T06:47:23.977Z,19.58
2024-05-09T06:49:59.981Z,26.85
2024-05-09T06:52:36.173Z,18.60
2024-05-09T06:55:09.493Z,29.52
2024-05-09T06:57:45.565Z,26.40
2024-05-09T07:00:27.392Z,12.93
2024-05-09T07:03:18.760Z,15.40
2024-05-09T07:05:55.063Z,18.52
2024-05-09T07:08:30.727Z,11.55
2024-05-09T07:11:04.636Z,12.50
2024-05-09T07:13:40.414Z,12.50
2024-05-09T07:16:13.755Z,10.00
2024-05-09T07:18:55.206Z,13.85
2024-05-09T07:21:32.441Z,15.55
2024-05-09T07:24:08.642Z,11.30
2024-05-09T07:26:41.425Z,15.23
2024-05-09T07:29:16.994Z,12.50
2024-05-09T07:31:51.023Z,12.57
2024-05-09T07:34:26.704Z,8.95
2024-05-09T07:37:02.296Z,5.65
2024-05-09T07:39:37.740Z,4.28
2024-05-09T07:42:10.989Z,6.15
2024-05-09T07:44:46.808Z,12.77
2024-05-09T07:48:29.219Z,13.02
2024-05-09T07:53:35.687Z,14.80
2024-05-09T07:55:50.138Z,7.10
2024-05-09T07:58:27.722Z,4.50
2024-05-09T08:01:03.725Z,8.27
2024-05-09T08:03:38.649Z,12.82
2024-05-09T08:06:14.624Z,10.98
2024-05-09T08:08:52.769Z,9.73
2024-05-09T08:11:25.861Z,7.13
2024-05-09T08:14:01.399Z,6.75
2024-05-09T08:16:34.368Z,10.05
2024-05-09T08:19:09.987Z,7.93
2024-05-09T08:21:45.671Z,8.45
2024-05-09T08:24:21.081Z,8.55
2024-05-09T08:26:56.560Z,19.65
2024-05-09T08:29:29.572Z,6.15
2024-05-09T08:32:06.162Z,5.50
2024-05-09T08:34:39.535Z,10.73
2024-05-09T08:37:21.491Z,10.15
2024-05-09T08:42:36.324Z,9.32
2024-05-09T08:45:10.760Z,14.07
2024-05-09T08:47:49.391Z,9.25
2024-05-09T08:50:31.712Z,8.15
2024-05-09T08:53:14.948Z,4.15
2024-05-09T08:55:52.258Z,3.58
2024-05-09T08:58:29.047Z,4.57
2024-05-09T09:01:04.415Z,7.22
2024-05-09T09:03:41.581Z,10.98
2024-05-09T09:06:18.423Z,7.03
2024-05-09T09:08:54.501Z,10.10
2024-05-09T09:11:30.121Z,5.95
2024-05-09T09:14:06.188Z,6.32
2024-05-09T09:16:39.401Z,4.78
2024-05-09T09:19:15.524Z,4.80
2024-05-09T09:21:48.894Z,8.18
2024-05-09T09:24:24.826Z,5.00
2024-05-09T09:27:00.434Z,7.72
2024-05-09T09:29:35.811Z,6.40
2024-05-09T09:32:09.173Z,5.28
2024-05-09T09:34:44.749Z,5.38
2024-05-09T09:37:23.900Z,5.18
2024-05-09T09:40:01.528Z,8.07
2024-05-09T09:42:38.846Z,4.32
2024-05-09T09:45:15.771Z,4.40
2024-05-09T09:47:50.334Z,7.65
2024-05-09T09:50:33.742Z,2.63
2024-05-09T09:53:08.238Z,2.30
2024-05-09T09:55:49.056Z,6.40
2024-05-09T09:58:26.075Z,7.75
2024-05-09T10:01:02.437Z,5.50
2024-05-09T10:03:35.963Z,2.95
2024-05-09T10:06:14.207Z,2.35
2024-05-09T10:08:48.700Z,4.30
2024-05-09T10:11:25.129Z,4.30
2024-05-09T10:14:03.620Z,3.17
2024-05-09T10:16:46.746Z,4.65
2024-05-09T10:19:25.104Z,3.85
2024-05-09T10:22:09.177Z,4.70
2024-05-09T10:27:33.737Z,7.35
2024-05-09T10:30:14.825Z,3.78
2024-05-09T10:33:00.420Z,51.55
2024-05-09T10:35:33.481Z,52.80
2024-05-09T10:38:10.012Z,37.35
2024-05-09T10:40:43.989Z,22.35
2024-05-09T10:45:58.070Z,31.55
2024-05-09T10:48:34.385Z,29.77
2024-05-09T10:51:08.061Z,32.50
2024-05-09T10:53:45.219Z,16.17
2024-05-09T10:56:18.533Z,27.85
2024-05-09T10:58:54.940Z,14.68
2024-05-09T11:01:30.684Z,37.60
2024-05-09T11:04:06.493Z,30.35
2024-05-09T11:06:40.042Z,35.15
2024-05-09T11:09:15.527Z,27.90
2024-05-09T11:11:48.983Z,28.83
2024-05-09T11:14:24.566Z,36.60
2024-05-09T11:17:06.223Z,22.10
2024-05-09T11:19:49.024Z,22.98
2024-05-09T11:22:25.232Z,29.67
2024-05-09T11:25:00.757Z,27.35
2024-05-09T11:27:34.009Z,35.40
2024-05-09T11:30:29.578Z,34.60
2024-05-09T11:33:11.032Z,42.03
2024-05-09T11:35:47.130Z,30.00
2024-05-09T11:38:20.171Z,23.05
2024-05-09T11:40:55.741Z,18.83
2024-05-09T11:43:29.069Z,13.07
2024-05-09T11:46:05.834Z,9.73
2024-05-09T11:48:42.657Z,12.57
2024-05-09T11:51:18.511Z,11.90
2024-05-09T11:53:51.404Z,8.60
2024-05-09T11:56:29.910Z,8.77
2024-05-09T11:59:03.233Z,14.27
2024-05-09T12:01:38.843Z,6.30
2024-05-09T12:04:15.889Z,7.68
2024-05-09T12:06:51.703Z,20.80
2024-05-09T12:09:25.632Z,13.30
2024-05-09T12:14:33.822Z,6.00
2024-05-09T12:17:09.425Z,7.20
2024-05-09T12:19:45.058Z,6.03
2024-05-09T12:22:20.652Z,3.85
2024-05-09T12:24:53.566Z,6.72
2024-05-09T12:27:29.109Z,4.57
2024-05-09T12:30:02.518Z,3.33
2024-05-09T12:32:39.121Z,4.32
2024-05-09T12:35:14.919Z,4.55
2024-05-09T12:37:50.540Z,4.80
2024-05-09T12:40:31.636Z,6.97
2024-05-09T12:43:12.347Z,5.25
2024-05-09T12:45:45.477Z,3.92
2024-05-09T12:48:21.048Z,6.72
2024-05-09T12:50:57.919Z,4.93
2024-05-09T12:53:33.421Z,10.50
2024-05-09T12:56:09.209Z,2.92
2024-05-09T12:58:44.889Z,5.38
2024-05-09T13:01:17.764Z,6.72
2024-05-09T13:03:53.419Z,3.60
2024-05-09T13:06:29.183Z,5.13
2024-05-09T13:09:04.814Z,3.47
2024-05-09T13:11:37.850Z,5.82
2024-05-09T13:14:13.319Z,2.72
2024-05-09T13:16:46.123Z,6.72
2024-05-09T13:19:21.736Z,3.83
2024-05-09T13:21:57.295Z,2.38
2024-05-09T13:24:32.781Z,5.78
2024-05-09T13:27:05.959Z,3.95
2024-05-09T13:29:44.231Z,4.57
2024-05-09T13:32:17.513Z,5.60
2024-05-09T13:34:53.002Z,3.92
2024-05-09T13:37:28.940Z,4.03
2024-05-09T13:40:07.100Z,4.63
2024-05-09T13:42:40.125Z,5.72
2024-05-09T13:45:15.770Z,3.87
2024-05-09T13:47:48.915Z,7.65
2024-05-09T13:50:33.153Z,4.00
2024-05-09T13:53:15.062Z,5.18
2024-05-09T13:55:48.471Z,3.55
2024-05-09T13:58:24.244Z,2.72
2024-05-09T14:00:57.403Z,2.53
2024-05-09T14:03:33.470Z,3.13
2024-05-09T14:06:08.743Z,4.88
2024-05-09T14:08:48.559Z,1.90
2024-05-09T14:11:22.015Z,2.45
2024-05-09T14:13:57.725Z,5.28
2024-05-09T14:16:31.430Z,6.78
2024-05-09T14:21:39.412Z,6.10
2024-05-09T14:24:17.449Z,3.65
2024-05-09T14:26:50.467Z,2.00
2024-05-09T14:29:25.817Z,2.87
2024-05-09T14:31:58.626Z,2.20
2024-05-09T14:34:34.356Z,8.98
2024-05-09T14:37:07.319Z,2.20
2024-05-09T14:39:45.631Z,4.23
2024-05-09T14:42:19.727Z,3.65
2024-05-09T14:44:55.672Z,2.55
2024-05-09T14:47:28.994Z,3.00
2024-05-09T14:50:06.952Z,3.67
2024-05-09T14:52:41.676Z,4.18
2024-05-09T14:55:19.898Z,6.50
2024-05-09T14:57:52.824Z,4.22
2024-05-09T15:00:33.302Z,4.23
2024-05-09T15:03:09.032Z,3.28
2024-05-09T15:05:45.212Z,4.00
2024-05-09T15:08:18.981Z,2.72
2024-05-09T15:10:57.489Z,5.93
2024-05-09T15:13:30.726Z,5.13
2024-05-09T15:16:07.527Z,4.82
2024-05-09T15:18:43.775Z,4.03
2024-05-09T15:21:19.746Z,8.95
2024-05-09T15:23:55.465Z,5.50
2024-05-09T15:26:30.877Z,5.82
2024-05-09T15:29:06.213Z,6.13
2024-05-09T15:31:39.036Z,2.63
2024-05-09T15:34:14.341Z,6.05
2024-05-09T15:36:51.408Z,4.47
2024-05-09T15:39:30.403Z,4.85
2024-05-09T15:42:06.254Z,7.20
2024-05-09T15:44:41.646Z,10.77
2024-05-09T15:47:14.572Z,7.78
2024-05-09T15:49:50.888Z,2.23
2024-05-09T15:52:23.856Z,8.40
2024-05-09T15:54:59.285Z,5.07
2024-05-09T15:57:34.753Z,11.32
2024-05-09T16:00:21.481Z,2.20
2024-05-09T16:02:58.177Z,14.75
2024-05-09T16:05:34.003Z,9.15
2024-05-09T16:08:07.772Z,2.10
2024-05-09T16:10:46.265Z,8.32
2024-05-09T16:13:22.536Z,2.08
2024-05-09T16:15:58.356Z,7.90
2024-05-09T16:18:31.287Z,3.15
2024-05-09T16:21:07.131Z,3.17
2024-05-09T16:23:40.655Z,4.72
2024-05-09T16:26:16.084Z,5.15
2024-05-09T16:28:51.808Z,3.30
2024-05-09T16:31:27.689Z,2.83
2024-05-09T16:34:01.051Z,4.78
2024-05-09T16:36:36.771Z,1.95
2024-05-09T16:39:09.670Z,4.18
2024-05-09T16:41:45.116Z,2.37
2024-05-09T16:44:20.605Z,3.15
2024-05-09T16:46:57.304Z,1.48
2024-05-09T16:49:30.194Z,2.58
2024-05-09T16:52:06.235Z,2.63
2024-05-09T16:54:39.270Z,2.97
2024-05-09T16:57:14.898Z,2.97
2024-05-09T16:59:50.570Z,2.22
2024-05-09T17:02:26.250Z,5.43
2024-05-09T17:04:59.310Z,2.80
2024-05-09T17:07:35.267Z,2.80
2024-05-09T17:10:15.449Z,2.67
2024-05-09T17:12:57.584Z,3.00
2024-05-09T17:15:36.905Z,4.25
2024-05-09T17:18:14.309Z,7.50
2024-05-09T17:20:50.439Z,12.95
2024-05-09T17:23:23.554Z,8.27
2024-05-09T17:25:59.179Z,13.50
2024-05-09T17:28:32.280Z,8.43
2024-05-09T17:31:11.213Z,10.85
2024-05-09T17:33:44.345Z,6.30
2024-05-09T17:36:20.155Z,7.68
2024-05-09T17:38:53.190Z,8.55
2024-05-09T17:41:28.764Z,7.63
2024-05-09T17:44:03.046Z,3.45
2024-05-09T17:46:41.607Z,11.15
2024-05-09T17:49:14.710Z,11.18
2024-05-09T17:51:59.456Z,7.05
2024-05-09T17:54:32.443Z,5.18
2024-05-09T17:57:09.446Z,55.38
2024-05-09T17:59:42.329Z,25.70
2024-05-09T18:02:20.647Z,33.40
2024-05-09T18:04:53.875Z,8.73
2024-05-09T18:07:29.393Z,12.68
2024-05-09T18:10:03.210Z,15.40
2024-05-09T18:12:39.258Z,10.35
2024-05-09T18:15:12.178Z,8.82
2024-05-09T18:17:50.771Z,14.93
2024-05-09T18:20:33.137Z,8.35
2024-05-09T18:23:18.728Z,5.75
2024-05-09T18:25:54.913Z,7.03
2024-05-09T18:28:30.784Z,14.77
2024-05-09T18:31:03.899Z,6.50
2024-05-09T18:33:42.367Z,10.53
2024-05-09T18:36:15.402Z,12.73
2024-05-09T18:38:51.453Z,16.87
2024-05-09T18:41:24.417Z,15.35
2024-05-09T18:44:00.058Z,7.80
2024-05-09T18:46:33.105Z,14.52
2024-05-09T18:49:11.674Z,14.90
2024-05-09T18:51:44.726Z,9.98
2024-05-09T18:54:20.302Z,11.25
2024-05-09T18:56:53.189Z,22.98
2024-05-09T18:59:28.746Z,10.90
2024-05-09T19:02:01.794Z,16.58
2024-05-09T19:04:40.278Z,7.70
2024-05-09T19:07:13.651Z,15.07
2024-05-09T19:09:49.283Z,15.95
2024-05-09T19:12:22.439Z,10.05
2024-05-09T19:14:57.987Z,13.95
2024-05-09T19:17:31.761Z,19.23
2024-05-09T19:20:20.589Z,10.25
2024-05-09T19:23:01.992Z,8.88
2024-05-09T19:25:38.403Z,13.35
2024-05-09T19:28:11.448Z,16.60
2024-05-09T19:30:47.024Z,20.80
2024-05-09T19:33:20.038Z,20.90
2024-05-09T19:35:58.496Z,9.38
2024-05-09T19:38:31.859Z,10.20
2024-05-09T19:41:08.144Z,11.13
2024-05-09T19:43:41.293Z,18.27
2024-05-09T19:46:17.049Z,19.92
2024-05-09T19:48:50.209Z,17.08
2024-05-09T19:51:28.646Z,16.50
2024-05-09T19:54:01.717Z,17.20
2024-05-09T19:56:40.491Z,17.38
2024-05-09T19:59:13.510Z,17.05
2024-05-09T20:01:49.257Z,19.25
2024-05-09T20:04:22.333Z,18.02
2024-05-09T20:07:00.793Z,18.08
2024-05-09T20:09:33.627Z,18.10
2024-05-09T20:12:09.665Z,16.75
2024-05-09T20:14:42.741Z,22.60
2024-05-09T20:17:18.224Z,23.60
2024-05-09T20:19:51.316Z,17.40
2024-05-09T20:22:29.675Z,16.48
2024-05-09T20:25:02.512Z,17.95
2024-05-09T20:27:38.142Z,17.17
2024-05-09T20:30:14.395Z,17.58
2024-05-09T20:32:52.556Z,23.02
2024-05-09T20:35:26.603Z,16.73
2024-05-09T20:38:05.209Z,16.77
2024-05-09T20:40:39.634Z,18.55
2024-05-09T20:43:16.087Z,19.85
2024-05-09T20:45:49.007Z,15.45
2024-05-09T20:48:24.815Z,15.15
2024-05-09T20:50:57.928Z,16.98
2024-05-09T20:53:36.053Z,18.95
2024-05-09T20:56:09.119Z,14.50
2024-05-09T20:58:44.575Z,21.03
2024-05-09T21:01:17.430Z,16.88
2024-05-09T21:03:53.281Z,18.73
2024-05-09T21:06:26.336Z,19.27
2024-05-09T21:09:04.654Z,16.73
2024-05-09T21:11:37.625Z,16.75
2024-05-09T21:14:13.229Z,15.00
2024-05-09T21:16:46.222Z,12.73
2024-05-09T21:19:21.809Z,14.33
2024-05-09T21:21:54.586Z,14.10
2024-05-09T21:24:43.367Z,15.98
2024-05-09T21:27:16.183Z,14.90
2024-05-09T21:29:51.714Z,14.30
2024-05-09T21:32:24.569Z,14.23
2024-05-09T21:35:00.238Z,12.87
2024-05-09T21:37:33.141Z,11.82
2024-05-09T21:40:17.018Z,16.83
2024-05-09T21:42:56.996Z,13.63
2024-05-09T21:45:32.669Z,15.27
2024-05-09T21:48:07.025Z,16.08
2024-05-09T21:50:42.922Z,12.15
2024-05-09T21:53:16.155Z,13.95
2024-05-09T21:55:55.601Z,13.32
2024-05-09T21:58:29.008Z,14.65
2024-05-09T22:01:06.089Z,15.15
2024-05-09T22:03:39.285Z,13.30
2024-05-09T22:06:14.873Z,16.25
2024-05-09T22:08:47.713Z,10.85
2024-05-09T22:11:26.030Z,13.27
2024-05-09T22:13:59.058Z,15.63
2024-05-09T22:16:34.737Z,14.97
2024-05-09T22:19:08.200Z,14.38
2024-05-09T22:21:43.765Z,13.50
2024-05-09T22:24:16.638Z,13.52
2024-05-09T22:26:55.406Z,15.88
2024-05-09T22:29:28.329Z,15.55
2024-05-09T22:32:03.930Z,16.60
2024-05-09T22:34:36.678Z,16.38
2024-05-09T22:37:12.259Z,16.58
2024-05-09T22:39:45.158Z,13.68
2024-05-09T22:42:23.304Z,15.52
2024-05-09T22:44:56.332Z,11.13
2024-05-09T22:47:31.957Z,16.77
2024-05-09T22:50:05.698Z,15.93
2024-05-09T22:52:44.151Z,14.57
2024-05-09T22:55:16.933Z,15.15
2024-05-09T22:57:55.211Z,13.52
2024-05-09T23:00:31.797Z,13.38
2024-05-09T23:03:08.757Z,14.07
2024-05-09T23:05:41.595Z,9.30
2024-05-09T23:08:17.231Z,11.77
2024-05-09T23:10:50.207Z,14.57
2024-05-09T23:13:28.410Z,12.82
2024-05-09T23:16:01.339Z,11.82
2024-05-09T23:18:36.819Z,15.50
2024-05-09T23:21:09.607Z,13.70
2024-05-09T23:23:45.711Z,14.38
2024-05-09T23:26:18.484Z,14.82
2024-05-09T23:28:56.604Z,12.15
2024-05-09T23:31:29.828Z,13.88
2024-05-09T23:34:05.894Z,15.18
2024-05-09T23:36:39.008Z,13.95
2024-05-09T23:39:14.576Z,13.23
2024-05-09T23:41:47.463Z,14.63
2024-05-09T23:44:25.616Z,12.18
2024-05-09T23:46:58.456Z,14.80
2024-05-09T23:49:34.047Z,14.60
2024-05-09T23:52:07.179Z,12.50
2024-05-09T23:54:42.680Z,15.90
2024-05-09T23:57:15.606Z,15.02
2024-05-09T23:59:54.094Z,14.47
